Airfield :
LOGIN :

Register | Disclaimer

   EN    FR    IT 

 










Legend :    VFR   Marginal VFR   IFR   Intensive IFR   Very Intensive IFR
Visi :
Ceiling :
>= 8 km
>= 3000ft
5 to 8 km
1000 to 3000 ft
1500m to 5 km
500 to 1000 ft
800 to 1500m
200 to 500 ft
< 800m
< 200 ft
Symbols :   Thunderstorms  Fog  Heavy snow  Heavy precipitations  Wind > 20 kt
SIGMETs :     Misc.  Thunderstorms  Icing  Turbulence  Mountain Waves  Volcanic Ashes







- Airport Elevation : 410 ft
- IATA code : AVB


LIPA - Aviano AB Pordenone

CURRENT METAR :
  • 101655Z 23004KT 9999 SCT070 08/01 Q1015 RMK SCT VIS MIN 9999 WIND THR05 22004KT WIND THR23 21005KT A2998 BLU

EXPIRED METARs :
  • 101555Z 25003KT 9999 SCT080 08/04 Q1015 RMK SCT VIS MIN 9999 WIND THR05 26002KT WIND THR23 25003KT A2998 BLU
  • 101455Z 34002KT 9999 SCT080 SCT130 10/05 Q1014 RMK SCT VIS MIN 9999 WIND THR05 02003KT WIND THR23 35002KT A2996 BLU

TAF TAF LIPA
Valid from the 10 at 18:00 until the 11 at 03:00 UTC


101700Z 1018/1103 VRB05KT 9999 SCT070
PROB40
TEMPO 1100/1103 7000 NSW
No reported NOTAMs for that airfield.
2 SIGMETs reported for the Milano FIR (LIMM) :
 
Severe turbulence
LIMM SIGMET 14 VALID 101540/101940 LIIP
LIMM MILANO FIR SEV TURB FCST ENTIRE FIR ABV FL220 STNR NC=
Severe turbulence
LIMM SIGMET 13 VALID 101515/101915 LIIP
LIMM MILANO FIR SEV TURB FCST WI N4459 E00932 - N4331 E01316 - N4345 E01055 - N4445 E00903 - N4459 E00932 ABV FL020 STNR NC=



MET'MAP, your aeronautical weather chart ! - Copyright ORBIFLY December 2007 - Disclaimer

ORBIFLY MET'MAP TEAM :

Programming & Development : Alexandra Zaïnal
Concept & Development : Baudouin d'Aumeries
Co-Development & Prog : Marc-Olivier Méhu
Technical & hardware support : Manuel Goepfert

Contact : metmap@orbifly.com




SOURCES & CREDITS :

   NOAA